81FA weather

Johnson Ranch Heliport
Hobe Sound, Florida, United States

Public forecast

Using degrees Fahrenheit for public forecast. Weather courtesy of forecast.io.

METAR (pilot weather report)

Closest report is Witham Field, 9.3 nm (17.3 km) NNW. Retrieved 2019/06/26 03:35 UTC (2 minutes ago):

KSUA 260335Z AUTO 00000KT 10SM SCT070 28/24 A3011 RMK AO2 LTG DSNT W

TAF (pilot weather forecast)

Closest forecast is Witham Field, 9.3 nm (17.3 km) NNW. Retrieved 2019/06/26 00:09 UTC (3 hours ago):

TAF KSUA 260006Z 2600/2624 06009KT 5SM HZ FU SKC FM260200 VRB03KT P6SM SCT050 BKN250 FM261400 03005KT P6SM SCT035 SCT250 FM261800 07010KT P6SM FEW040